createdAt,value
2022-09-13T00:00:58.988Z,953.06
2022-09-13T00:03:59.000Z,953.07
2022-09-13T00:06:58.828Z,953.12
2022-09-13T00:10:03.921Z,953.09
2022-09-13T00:12:58.610Z,953.13
2022-09-13T00:15:58.672Z,953.19
2022-09-13T00:18:58.657Z,953.13
2022-09-13T00:21:58.633Z,953.23
2022-09-13T00:24:58.769Z,953.13
2022-09-13T00:27:58.418Z,953.02
2022-09-13T00:30:59.487Z,952.93
2022-09-13T00:33:59.360Z,952.93
2022-09-13T00:36:58.297Z,952.88
2022-09-13T00:39:58.553Z,952.84
2022-09-13T00:42:58.693Z,952.81
2022-09-13T00:45:59.286Z,952.67
2022-09-13T00:48:59.268Z,952.73
2022-09-13T00:51:58.472Z,952.56
2022-09-13T00:54:59.081Z,952.54
2022-09-13T00:57:59.119Z,952.51
2022-09-13T01:00:58.689Z,952.49
2022-09-13T01:03:59.025Z,952.54
2022-09-13T01:06:59.016Z,952.54
2022-09-13T01:09:59.158Z,952.62
2022-09-13T01:12:58.937Z,952.67
2022-09-13T01:15:58.970Z,952.72
2022-09-13T01:18:58.714Z,952.67
2022-09-13T01:21:58.812Z,952.67
2022-09-13T01:24:58.742Z,952.7
2022-09-13T01:27:58.732Z,952.62
2022-09-13T01:30:59.598Z,952.58
2022-09-13T01:33:58.789Z,952.59
2022-09-13T01:36:58.518Z,952.42
2022-09-13T01:39:58.514Z,952.55
2022-09-13T01:42:58.451Z,952.47
2022-09-13T01:45:58.481Z,952.54
2022-09-13T01:48:58.448Z,952.52
2022-09-13T01:51:58.693Z,952.46
2022-09-13T01:54:59.139Z,952.53
2022-09-13T01:57:59.080Z,952.46
2022-09-13T02:00:58.372Z,952.62
2022-09-13T02:03:59.241Z,952.55
2022-09-13T02:06:59.226Z,952.58
2022-09-13T02:09:58.848Z,952.57
2022-09-13T02:12:59.443Z,952.52
2022-09-13T02:16:00.094Z,952.59
2022-09-13T02:18:59.405Z,952.4
2022-09-13T02:21:58.994Z,952.49
2022-09-13T02:24:58.922Z,952.43
2022-09-13T02:27:59.001Z,952.37
2022-09-13T02:30:58.894Z,952.39
2022-09-13T02:33:59.024Z,952.36
2022-09-13T02:36:59.602Z,952.37
2022-09-13T02:39:58.765Z,952.31
2022-09-13T02:42:58.667Z,952.25
2022-09-13T02:45:59.539Z,952.24
2022-09-13T02:48:58.574Z,952.33
2022-09-13T02:51:58.809Z,952.28
2022-09-13T02:54:58.765Z,952.13
2022-09-13T02:57:58.498Z,952.1
2022-09-13T03:00:59.296Z,952.27
2022-09-13T03:03:59.450Z,952.2
2022-09-13T03:06:58.351Z,952.19
2022-09-13T03:09:59.270Z,952.31
2022-09-13T03:12:59.247Z,952.34
2022-09-13T03:15:59.465Z,952.39
2022-09-13T03:18:59.054Z,952.33
2022-09-13T03:21:58.998Z,952.33
2022-09-13T03:24:58.382Z,952.29
2022-09-13T03:27:59.240Z,952.44
2022-09-13T03:30:58.867Z,952.31
2022-09-13T03:33:59.002Z,952.33
2022-09-13T03:36:59.203Z,952.25
2022-09-13T03:39:59.903Z,952.15
2022-09-13T03:42:59.127Z,952.21
2022-09-13T03:45:59.028Z,952.12
2022-09-13T03:48:59.708Z,952.14
2022-09-13T03:51:58.702Z,952.11
2022-09-13T03:54:58.981Z,952.11
2022-09-13T03:57:58.493Z,952.2
2022-09-13T04:00:59.663Z,952.19
2022-09-13T04:03:58.571Z,952.26
2022-09-13T04:06:58.545Z,952.17
2022-09-13T04:09:59.258Z,952.18
2022-09-13T04:12:58.688Z,952.18
2022-09-13T04:15:58.475Z,952.26
2022-09-13T04:18:59.154Z,952.25
2022-09-13T04:21:59.019Z,952.45
2022-09-13T04:25:02.123Z,952.28
2022-09-13T04:27:58.443Z,952.28
2022-09-13T04:30:59.232Z,952.22
2022-09-13T04:33:59.168Z,952.16
2022-09-13T04:36:59.027Z,952.35
2022-09-13T04:39:58.989Z,952.46
2022-09-13T04:42:58.211Z,952.56
2022-09-13T04:45:59.644Z,952.46
2022-09-13T04:48:58.989Z,952.36
2022-09-13T04:51:58.948Z,952.31
2022-09-13T04:54:59.160Z,952.27
2022-09-13T04:57:59.011Z,952.21
2022-09-13T05:00:59.743Z,952.05
2022-09-13T05:03:59.643Z,952.01
2022-09-13T05:06:59.318Z,951.93
2022-09-13T05:09:59.844Z,951.86
2022-09-13T05:12:59.144Z,951.96
2022-09-13T05:15:59.521Z,951.97
2022-09-13T05:18:59.905Z,952.09
2022-09-13T05:21:59.079Z,952.14
2022-09-13T05:24:59.433Z,952.33
2022-09-13T05:27:58.384Z,952.47
2022-09-13T05:30:59.504Z,952.37
2022-09-13T05:33:59.251Z,952.34
2022-09-13T05:36:58.685Z,952.34
2022-09-13T05:40:11.317Z,952.36
2022-09-13T05:42:58.818Z,952.43
2022-09-13T05:45:59.113Z,952.49
2022-09-13T05:48:59.139Z,952.5
2022-09-13T05:51:59.139Z,952.54
2022-09-13T05:54:59.407Z,952.57
2022-09-13T05:57:58.967Z,952.64
2022-09-13T06:01:00.279Z,952.64
2022-09-13T06:03:59.019Z,952.67
2022-09-13T06:06:58.673Z,952.79
2022-09-13T06:09:59.295Z,952.73
2022-09-13T06:12:59.826Z,952.61
2022-09-13T06:15:59.747Z,952.63
2022-09-13T06:18:59.596Z,952.63
2022-09-13T06:21:59.535Z,952.73
2022-09-13T06:24:59.474Z,952.71
2022-09-13T06:27:59.610Z,952.67
2022-09-13T06:30:59.074Z,952.61
2022-09-13T06:33:58.355Z,952.59
2022-09-13T06:36:59.463Z,952.61
2022-09-13T06:39:59.491Z,952.65
2022-09-13T06:42:59.173Z,952.56
2022-09-13T06:45:59.445Z,952.58
2022-09-13T06:48:59.516Z,952.69
2022-09-13T06:51:59.102Z,952.66
2022-09-13T06:54:59.243Z,952.65
2022-09-13T06:57:59.437Z,952.56
2022-09-13T07:00:59.052Z,952.66
2022-09-13T07:03:58.528Z,952.71
2022-09-13T07:06:58.640Z,952.72
2022-09-13T07:09:59.256Z,952.73
2022-09-13T07:12:58.840Z,952.7
2022-09-13T07:15:59.165Z,952.62
2022-09-13T07:18:59.036Z,952.67
2022-09-13T07:21:58.800Z,952.53
2022-09-13T07:24:59.190Z,952.47
2022-09-13T07:27:59.028Z,952.54
2022-09-13T07:30:58.669Z,952.7
2022-09-13T07:33:58.937Z,952.56
2022-09-13T07:36:59.205Z,952.54
2022-09-13T07:39:59.711Z,952.53
2022-09-13T07:42:58.591Z,952.4
2022-09-13T07:45:59.930Z,952.31
2022-09-13T07:48:59.319Z,952.47
2022-09-13T07:51:59.182Z,952.45
2022-09-13T07:54:58.735Z,952.45
2022-09-13T07:57:58.881Z,952.54
2022-09-13T08:00:59.260Z,952.54
2022-09-13T08:03:59.216Z,952.51
2022-09-13T08:06:58.889Z,952.51
2022-09-13T08:09:59.158Z,952.54
2022-09-13T08:12:59.670Z,952.51
2022-09-13T08:15:59.583Z,952.45
2022-09-13T08:18:59.195Z,952.54
2022-09-13T08:21:59.028Z,952.58
2022-09-13T08:24:59.024Z,952.61
2022-09-13T08:27:59.333Z,952.65
2022-09-13T08:30:59.234Z,952.61
2022-09-13T08:33:58.318Z,952.58
2022-09-13T08:36:59.673Z,952.64
2022-09-13T08:39:58.678Z,952.61
2022-09-13T08:42:58.505Z,952.72
2022-09-13T08:45:59.438Z,952.65
2022-09-13T08:48:58.340Z,952.66
2022-09-13T08:51:58.524Z,952.6
2022-09-13T08:54:58.825Z,952.6
2022-09-13T08:57:59.401Z,952.63
2022-09-13T09:00:59.136Z,952.6
2022-09-13T09:03:58.999Z,952.67
2022-09-13T09:06:59.094Z,952.54
2022-09-13T09:09:59.111Z,952.62
2022-09-13T09:12:59.304Z,952.54
2022-09-13T09:15:59.591Z,952.56
2022-09-13T09:18:59.068Z,952.6
2022-09-13T09:21:59.306Z,952.63
2022-09-13T09:24:59.244Z,952.64
2022-09-13T09:27:58.243Z,952.69
2022-09-13T09:30:58.569Z,952.66
2022-09-13T09:33:58.616Z,952.54
2022-09-13T09:36:58.331Z,952.6
2022-09-13T09:39:59.554Z,952.48
2022-09-13T09:42:58.958Z,952.53
2022-09-13T09:45:59.217Z,952.61
2022-09-13T09:48:58.809Z,952.52
2022-09-13T09:51:59.697Z,952.54
2022-09-13T09:54:59.049Z,952.48
2022-09-13T09:57:59.638Z,952.51
2022-09-13T10:00:59.107Z,952.47
2022-09-13T10:03:58.633Z,952.51
2022-09-13T10:06:58.635Z,952.47
2022-09-13T10:09:59.728Z,952.47
2022-09-13T10:12:59.359Z,952.41
2022-09-13T10:15:58.511Z,952.35
2022-09-13T10:18:59.021Z,952.39
2022-09-13T10:21:59.130Z,952.32
2022-09-13T10:24:58.453Z,952.26
2022-09-13T10:27:58.742Z,952.42
2022-09-13T10:30:59.328Z,952.41
2022-09-13T10:33:59.135Z,952.44
2022-09-13T10:36:58.674Z,952.35
2022-09-13T10:39:59.400Z,952.35
2022-09-13T10:42:58.292Z,952.39
2022-09-13T10:45:59.606Z,952.39
2022-09-13T10:48:58.596Z,952.43
2022-09-13T10:51:58.384Z,952.37
2022-09-13T10:54:58.916Z,952.45
2022-09-13T10:57:58.934Z,952.45
2022-09-13T11:00:59.204Z,952.45
2022-09-13T11:04:16.532Z,952.37
2022-09-13T11:07:01.920Z,952.23
2022-09-13T11:09:59.764Z,952.24
2022-09-13T11:12:58.723Z,952.27
2022-09-13T11:15:58.655Z,952.14
2022-09-13T11:18:58.769Z,952.23
2022-09-13T11:21:58.946Z,952.19
2022-09-13T11:24:58.456Z,952.3
2022-09-13T11:27:59.433Z,952.27
2022-09-13T11:30:59.473Z,952.26
2022-09-13T11:33:58.378Z,952.24
2022-09-13T11:36:58.441Z,952.24
2022-09-13T11:39:58.798Z,952.18
2022-09-13T11:42:59.160Z,952.18
2022-09-13T11:45:58.544Z,952.04
2022-09-13T11:48:58.749Z,952.03
2022-09-13T11:51:58.994Z,952.01
2022-09-13T11:54:59.401Z,951.97
2022-09-13T11:57:58.976Z,952.04
2022-09-13T12:00:59.437Z,952.04
2022-09-13T12:03:58.844Z,952.25
2022-09-13T12:06:59.724Z,952.16
2022-09-13T12:09:59.550Z,952.27
2022-09-13T12:12:58.872Z,952.31
2022-09-13T12:15:59.245Z,952.23
2022-09-13T12:18:59.226Z,952.22
2022-09-13T12:21:58.859Z,952.14
2022-09-13T12:24:58.871Z,952.14
2022-09-13T12:27:58.609Z,952.07
2022-09-13T12:30:59.099Z,952.09
2022-09-13T12:33:58.719Z,952.11
2022-09-13T12:36:59.467Z,952.12
2022-09-13T12:39:59.578Z,952.09
2022-09-13T12:42:59.484Z,952.02
2022-09-13T12:45:58.599Z,951.94
2022-09-13T12:48:59.242Z,951.89
2022-09-13T12:51:59.396Z,952.03
2022-09-13T12:54:58.401Z,951.89
2022-09-13T12:57:59.294Z,951.82
2022-09-13T13:00:59.628Z,951.84
2022-09-13T13:03:58.336Z,951.92
2022-09-13T13:06:59.624Z,951.94
2022-09-13T13:09:59.550Z,951.8
2022-09-13T13:12:58.756Z,951.84
2022-09-13T13:15:59.061Z,951.82
2022-09-13T13:18:59.326Z,951.96
2022-09-13T13:21:58.398Z,951.95
2022-09-13T13:24:59.114Z,951.9
2022-09-13T13:27:59.390Z,951.96
2022-09-13T13:30:59.232Z,951.89
2022-09-13T13:33:58.397Z,951.73
2022-09-13T13:36:59.050Z,951.7
2022-09-13T13:39:59.478Z,951.8
2022-09-13T13:42:59.591Z,951.68
2022-09-13T13:45:59.574Z,951.58
2022-09-13T13:48:58.735Z,951.51
2022-09-13T13:51:58.710Z,951.58
2022-09-13T13:54:59.524Z,951.57
2022-09-13T13:57:59.355Z,951.52
2022-09-13T14:01:00.018Z,951.5
2022-09-13T14:03:59.344Z,951.35
2022-09-13T14:07:03.096Z,951.39
2022-09-13T14:09:59.565Z,951.33
2022-09-13T14:12:59.219Z,951.29
2022-09-13T14:15:58.870Z,951.25
2022-09-13T14:18:59.235Z,951.16
2022-09-13T14:21:59.000Z,951.16
2022-09-13T14:24:59.035Z,951.12
2022-09-13T14:27:59.806Z,951.02
2022-09-13T14:31:00.244Z,950.99
2022-09-13T14:33:59.515Z,950.98
2022-09-13T14:36:58.914Z,950.98
2022-09-13T14:39:59.979Z,951.02
2022-09-13T14:42:59.045Z,951.1
2022-09-13T14:45:59.755Z,951.1
2022-09-13T14:48:59.619Z,951.01
2022-09-13T14:51:58.933Z,951.09
2022-09-13T14:54:59.120Z,951.04
2022-09-13T14:57:59.615Z,951.05
2022-09-13T15:00:59.683Z,951.02
2022-09-13T15:03:58.855Z,950.98
2022-09-13T15:06:58.534Z,950.9
2022-09-13T15:09:59.480Z,950.98
2022-09-13T15:12:59.664Z,950.9
2022-09-13T15:15:59.471Z,950.93
2022-09-13T15:18:59.236Z,950.91
2022-09-13T15:21:58.682Z,950.87
2022-09-13T15:24:58.708Z,950.88
2022-09-13T15:27:59.390Z,950.78
2022-09-13T15:30:59.229Z,950.84
2022-09-13T15:33:58.997Z,950.88
2022-09-13T15:36:59.191Z,950.87
2022-09-13T15:40:00.106Z,950.91
2022-09-13T15:42:58.935Z,950.86
2022-09-13T15:45:59.020Z,950.83
2022-09-13T15:48:59.751Z,950.84
2022-09-13T15:51:59.210Z,950.84
2022-09-13T15:55:00.449Z,950.81
2022-09-13T15:57:59.102Z,950.8
2022-09-13T16:01:00.302Z,950.74
2022-09-13T16:03:58.769Z,950.69
2022-09-13T16:06:58.760Z,950.6
2022-09-13T16:09:59.251Z,950.64
2022-09-13T16:12:59.605Z,950.62
2022-09-13T16:15:59.103Z,950.49
2022-09-13T16:18:59.427Z,950.38
2022-09-13T16:21:59.476Z,950.39
2022-09-13T16:24:59.104Z,950.43
2022-09-13T16:27:59.463Z,950.32
2022-09-13T16:30:59.484Z,950.34
2022-09-13T16:33:59.442Z,950.24
2022-09-13T16:36:59.240Z,950.27
2022-09-13T16:39:59.382Z,950.28
2022-09-13T16:42:58.721Z,950.13
2022-09-13T16:46:00.011Z,950.09
2022-09-13T16:48:59.723Z,950.09
2022-09-13T16:51:59.707Z,950.14
2022-09-13T16:55:00.005Z,950.06
2022-09-13T16:57:59.314Z,950.05
2022-09-13T17:00:59.509Z,950.05
2022-09-13T17:03:59.650Z,950.06
2022-09-13T17:06:59.085Z,950.09
2022-09-13T17:09:58.736Z,950.08
2022-09-13T17:12:58.830Z,950.01
2022-09-13T17:15:58.981Z,949.96
2022-09-13T17:18:59.367Z,949.94
2022-09-13T17:21:59.253Z,949.97
2022-09-13T17:24:58.720Z,949.89
2022-09-13T17:27:58.809Z,949.86
2022-09-13T17:31:01.813Z,949.88
2022-09-13T17:33:58.581Z,949.87
2022-09-13T17:36:59.565Z,949.87
2022-09-13T17:39:59.310Z,949.84
2022-09-13T17:42:58.879Z,949.83
2022-09-13T17:45:59.395Z,949.95
2022-09-13T17:48:59.287Z,949.96
2022-09-13T17:51:59.289Z,950.06
2022-09-13T17:54:58.699Z,949.98
2022-09-13T17:57:59.305Z,950.05
2022-09-13T18:01:25.545Z,950.01
2022-09-13T18:03:59.517Z,949.99
2022-09-13T18:06:58.997Z,950.01
2022-09-13T18:09:59.170Z,950.09
2022-09-13T18:12:59.667Z,949.99
2022-09-13T18:15:59.016Z,950.06
2022-09-13T18:18:58.883Z,949.99
2022-09-13T18:21:59.026Z,949.99
2022-09-13T18:24:58.825Z,949.97
2022-09-13T18:27:58.780Z,950.06
2022-09-13T18:30:58.761Z,950.09
2022-09-13T18:33:58.412Z,950.1
2022-09-13T18:36:59.306Z,950.06
2022-09-13T18:39:59.271Z,950.03
2022-09-13T18:42:58.401Z,950.07
2022-09-13T18:45:59.867Z,950.17
2022-09-13T18:48:58.876Z,950.23
2022-09-13T18:51:59.380Z,950.19
2022-09-13T18:54:59.546Z,950.09
2022-09-13T18:57:58.897Z,950.11
2022-09-13T19:00:59.263Z,950.09
2022-09-13T19:03:58.595Z,950.19
2022-09-13T19:06:58.506Z,950.22
2022-09-13T19:09:59.405Z,950.19
2022-09-13T19:12:59.106Z,950.17
2022-09-13T19:15:59.906Z,950.19
2022-09-13T19:18:59.075Z,950.26
2022-09-13T19:21:58.711Z,950.23
2022-09-13T19:24:58.949Z,950.23
2022-09-13T19:27:58.804Z,950.27
2022-09-13T19:30:59.943Z,950.31
2022-09-13T19:33:59.857Z,950.18
2022-09-13T19:36:59.091Z,950.25
2022-09-13T19:39:59.981Z,950.22
2022-09-13T19:42:59.330Z,950.26
2022-09-13T19:45:59.105Z,950.28
2022-09-13T19:48:59.204Z,950.28
2022-09-13T19:51:58.711Z,950.24
2022-09-13T19:54:58.552Z,950.31
2022-09-13T19:57:58.669Z,950.35
2022-09-13T20:01:00.131Z,950.22
2022-09-13T20:03:58.579Z,950.19
2022-09-13T20:06:58.416Z,950.18
2022-09-13T20:09:59.393Z,950.25
2022-09-13T20:12:58.778Z,950.18
2022-09-13T20:15:59.170Z,950.28
2022-09-13T20:18:59.542Z,950.37
2022-09-13T20:21:58.873Z,950.3
2022-09-13T20:24:58.412Z,950.3
2022-09-13T20:27:58.561Z,950.3
2022-09-13T20:31:00.283Z,950.24
2022-09-13T20:33:59.153Z,950.24
2022-09-13T20:36:58.975Z,950.21
2022-09-13T20:39:59.485Z,950.27
2022-09-13T20:42:58.861Z,950.23
2022-09-13T20:45:59.768Z,950.26
2022-09-13T20:48:59.013Z,950.32
2022-09-13T20:51:59.358Z,950.25
2022-09-13T20:54:59.605Z,950.16
2022-09-13T20:57:58.750Z,950.13
2022-09-13T21:00:59.654Z,950.03
2022-09-13T21:03:58.847Z,950.08
2022-09-13T21:06:58.956Z,950.03
2022-09-13T21:09:59.778Z,950.1
2022-09-13T21:12:58.600Z,950.09
2022-09-13T21:15:58.996Z,950.17
2022-09-13T21:18:59.608Z,950.13
2022-09-13T21:21:58.821Z,950.11
2022-09-13T21:24:59.207Z,950.17
2022-09-13T21:27:58.550Z,949.99
2022-09-13T21:30:59.478Z,950.05
2022-09-13T21:33:59.141Z,950.2
2022-09-13T21:36:59.510Z,950.1
2022-09-13T21:39:59.401Z,950.13
2022-09-13T21:42:58.621Z,950.01
2022-09-13T21:45:58.354Z,950.1
2022-09-13T21:48:59.071Z,949.92
2022-09-13T21:51:58.710Z,949.98
2022-09-13T21:54:58.955Z,950.04
2022-09-13T21:57:59.849Z,949.95
2022-09-13T22:00:59.877Z,949.82
2022-09-13T22:03:59.428Z,949.83
2022-09-13T22:06:58.773Z,949.85
2022-09-13T22:09:59.387Z,949.86
2022-09-13T22:12:58.496Z,949.77
2022-09-13T22:15:58.658Z,949.84
2022-09-13T22:18:58.862Z,949.73
2022-09-13T22:21:58.583Z,949.65
2022-09-13T22:24:59.453Z,949.58
2022-09-13T22:27:59.471Z,949.65
2022-09-13T22:30:59.626Z,949.68
2022-09-13T22:33:59.356Z,949.62
2022-09-13T22:36:58.423Z,949.67
2022-09-13T22:39:59.430Z,949.62
2022-09-13T22:42:58.269Z,949.55
2022-09-13T22:45:59.263Z,949.56
2022-09-13T22:48:58.616Z,949.54
2022-09-13T22:51:58.193Z,949.37
2022-09-13T22:54:59.112Z,949.4
2022-09-13T22:57:58.989Z,949.34
2022-09-13T23:00:59.388Z,949.3
2022-09-13T23:03:58.887Z,949.25
2022-09-13T23:06:58.998Z,949.28
2022-09-13T23:09:59.123Z,949.22
2022-09-13T23:12:59.433Z,949.21
2022-09-13T23:15:58.989Z,949.18
2022-09-13T23:18:58.946Z,949.12
2022-09-13T23:21:58.892Z,949.12
2022-09-13T23:24:59.371Z,949.05
2022-09-13T23:27:58.597Z,949.01
2022-09-13T23:30:58.968Z,949.03
2022-09-13T23:33:58.933Z,949.19
2022-09-13T23:36:58.724Z,949.09
2022-09-13T23:39:59.562Z,949.08
2022-09-13T23:42:59.261Z,949.15
2022-09-13T23:45:59.464Z,949.05
2022-09-13T23:48:59.373Z,948.93
2022-09-13T23:51:58.296Z,948.94
2022-09-13T23:54:58.588Z,948.93
2022-09-13T23:57:58.718Z,948.96
